Impacts METAR Board INFO
IDs:

KMCO - Orlando Intl, FL, US

Updated at: 1153 UTC 18 Jan 2018
Potential Impact None Slight Moderate High
Time17/23Z 18/00Z 18/01Z 18/02Z 18/03Z 18/04Z 18/05Z 18/06Z 18/07Z 18/08Z 18/09Z 18/10Z 18/11Z
VIS9 10 10 10 10 10 10 10 10 10 10 10 10
CIG250 65 -- 250 -- -- -- -- -- -- -- -- --
CoverBKNOVCSCTBKNSCTFEWCLRCLRCLRCLRCLRCLRCLR
FltCatVFRVFRVFRVFRVFRVFRVFRVFRVFRVFRVFRVFRVFR
WX--------------------------
WDir320310270300300320320330320320320320320
WSpd12 12 11 15 9 12 13 11 10 11 11 9 7
WGst-- -- -- 19 -- 21 -- -- -- -- -- -- --
Raw hourly METARs
KMCO 172253Z 32012KT 9SM FEW000 SCT032 BKN250 14/08 A3022 RMK AO2 SLP232 FU FEW000 T01440083
KMCO 172353Z 31012KT 10SM FEW044 BKN065 OVC250 12/07 A3025 RMK AO2 SLP242 T01220067 10217 20122 51027
KMCO 180053Z 27011KT 10SM FEW065 SCT250 11/06 A3026 RMK AO2 SLP246 T01060061
KMCO 180153Z 30015G19KT 10SM FEW050 BKN250 09/06 A3028 RMK AO2 SLP254 T00890056
KMCO 180253Z 30009KT 10SM FEW015 FEW050 SCT250 08/05 A3031 RMK AO2 SLP264 T00780050 53022
KMCO 180353Z 32012G21KT 10SM FEW250 06/M02 A3032 RMK AO2 SLP268 T00611017
KMCO 180453Z 32013KT 10SM CLR 04/M06 A3033 RMK AO2 SLP271 T00391056 402170039
KMCO 180553Z 33011KT 10SM CLR 03/M07 A3033 RMK AO2 SLP270 T00281067 10122 20028 50005 $
KMCO 180653Z 32010KT 10SM CLR 01/M08 A3034 RMK AO2 SLP272 T00111078 $
KMCO 180753Z 32011KT 10SM CLR 00/M08 A3034 RMK AO2 SLP272 T00001083 $
KMCO 180853Z 32011KT 10SM CLR M01/M09 A3034 RMK AO2 SLP274 T10111089 53004 $
KMCO 180953Z 32009KT 10SM CLR M02/M09 A3035 RMK AO2 SLP276 T10221094 $
KMCO 181053Z 32007KT 10SM CLR M02/M09 A3036 RMK AO2 SLP278 T10221094 $